Emerald Princess — ZCDP8 — position and weather

sailwx.info

Track history (hours):
 
Tides and Currents Weather Stations Pressure Air Temp Water Temp Dewpoint Dewpoint Depression Visibility Wind Speed Wind Dir Waves Ship Positions

Emerald Princess

Last reported at 2017-Sep-19 08:45 UTC. Time now 2017-Sep-22 06:20 UTC.
Position N 54°40' W 131°31'.

Type: Ship. MMSI: 310531000.

Date/timePositionNaut miles runAvg speedWind from/ knotsBaromVisibWave heightAir tempDewpointWater temp
2017-Sep-19 08:45N 54°40' W 131°31'311.9
2017-Sep-19 08:29N 54°37' W 131°28'714.7
2017-Sep-19 08:00N 54°32' W 131°21'714.6
2017-Sep-19 07:30N 54°26' W 131°13'714.4
2017-Sep-19 07:00N 54°20' W 131°06'714.1
2017-Sep-19 06:30N 54°13' W 131°04'713.5
2017-Sep-19 06:00N 54°06' W 131°03'714.1
2017-Sep-19 05:30N 53°59' W 131°05'714.5
2017-Sep-19 05:00N 53°52' W 131°07'714.3
2017-Sep-19 04:30N 53°45' W 131°05'714.3
2017-Sep-19 04:00N 53°38' W 131°03'714.5
2017-Sep-19 03:30N 53°31' W 131°02'914.7
2017-Sep-19 02:51N 53°21' W 130°58'615.4
2017-Sep-19 02:29N 53°16' W 130°55'7516.6
2017-Sep-18 22:00N 52°06' W 130°12'20217.2 090 / 141004.910.8 12.5 7.414.0
2017-Sep-18 10:15N 49°20' W 127°10'521.6
2017-Sep-18 10:00N 49°16' W 127°04'1121.5
2017-Sep-18 09:30N 49°09' W 126°52'1121.7
2017-Sep-18 09:00N 49°03' W 126°38'1121.2
2017-Sep-18 08:30N 48°58' W 126°23'1121.6
2017-Sep-18 08:00N 48°52' W 126°10'1122.6
2017-Sep-18 07:30N 48°46' W 125°55'1122.9
2017-Sep-18 07:00N 48°40' W 125°40'1122.6
2017-Sep-18 06:30N 48°35' W 125°25'1122.0
2017-Sep-18 06:00N 48°32' W 125°09'1122.0
2017-Sep-18 05:30N 48°32' W 124°53'1122.2
2017-Sep-18 05:00N 48°29' W 124°37'1122.7
2017-Sep-18 04:30N 48°24' W 124°21'1121.8
2017-Sep-18 04:00N 48°20' W 124°06'1122.1
2017-Sep-18 03:30N 48°17' W 123°50'1223.0
2017-Sep-18 03:00N 48°15' W 123°33'918.1
2017-Sep-18 02:30N 48°09' W 123°22'1019.1
2017-Sep-18 02:00N 48°12' W 123°09'1122.3
2017-Sep-18 01:30N 48°12' W 122°52'1121.7
2017-Sep-18 01:00N 48°05' W 122°39'1021.5
2017-Sep-18 00:30N 47°56' W 122°30'1122.0
2017-Sep-18 00:00N 47°46' W 122°26'917.0
2017-Sep-17 23:30N 47°37' W 122°24'1 2.1
2017-Sep-17 22:59N 47°38' W 122°23'0 0.0
2017-Sep-17 22:29N 47°38' W 122°23'0 0.0
2017-Sep-17 21:58N 47°38' W 122°23'0 0.0
2017-Sep-17 21:29N 47°38' W 122°23'0 0.0
2017-Sep-17 21:00N 47°38' W 122°23'0 0.0
2017-Sep-17 20:30N 47°38' W 122°23'0 0.0
2017-Sep-17 20:00N 47°38' W 122°23'0 0.0
2017-Sep-17 19:28N 47°38' W 122°23'0 0.0
2017-Sep-17 19:00N 47°38' W 122°23'0 0.0
2017-Sep-17 18:30N 47°38' W 122°23'0 0.0
2017-Sep-17 18:00N 47°38' W 122°23'0 0.0
2017-Sep-17 17:29N 47°38' W 122°23'0 0.0
2017-Sep-17 16:59N 47°38' W 122°23'0 0.0
2017-Sep-17 16:29N 47°38' W 122°23'0 0.0
2017-Sep-17 15:59N 47°38' W 122°23'0 0.0
2017-Sep-17 15:28N 47°38' W 122°23'0 0.0
2017-Sep-17 14:59N 47°38' W 122°23'0 0.0
2017-Sep-17 14:28N 47°38' W 122°23'0 0.0
2017-Sep-17 14:00N 47°38' W 122°23'0 0.0
2017-Sep-17 13:30N 47°38' W 122°23'0 0.0
2017-Sep-17 13:00N 47°38' W 122°23'1 1.6
2017-Sep-17 12:30N 47°37' W 122°23'5 9.2
2017-Sep-17 12:00N 47°40' W 122°28'714.5
2017-Sep-17 11:30N 47°47' W 122°27'815.7
2017-Sep-17 11:00N 47°55' W 122°30'816.2
2017-Sep-17 10:30N 48°01' W 122°38'815.2
2017-Sep-17 10:00N 48°08' W 122°42'816.8
2017-Sep-17 09:30N 48°12' W 122°54'919.1
2017-Sep-17 09:00N 48°12' W 123°08'1019.5
2017-Sep-17 08:30N 48°11' W 123°22'612.2
2017-Sep-17 08:00N 48°14' W 123°30'917.1
2017-Sep-17 07:31N 48°22' W 123°25'3 6.5
2017-Sep-17 07:00N 48°25' W 123°24'0 0.0
2017-Sep-17 06:28N 48°25' W 123°24'0 0.0
2017-Sep-17 05:58N 48°25' W 123°24'0 0.0
2017-Sep-17 05:31N 48°25' W 123°24'0 0.0
2017-Sep-17 05:00N 48°25' W 123°24'0 0.0
2017-Sep-17 04:30N 48°25' W 123°24'0 0.0
2017-Sep-17 04:00N 48°25' W 123°24'0 0.0
2017-Sep-17 03:30N 48°25' W 123°24'0 0.0
2017-Sep-17 02:59N 48°25' W 123°24'0 0.0
2017-Sep-17 02:29N 48°25' W 123°24'0 0.0
2017-Sep-17 01:59N 48°25' W 123°24'0 0.0
2017-Sep-17 01:29N 48°25' W 123°24'0 0.9
2017-Sep-17 01:01N 48°25' W 123°24'4 7.1
2017-Sep-17 00:31N 48°21' W 123°25'611.2
2017-Sep-17 00:01N 48°16' W 123°26'612.0
2017-Sep-16 23:30N 48°13' W 123°34'713.4
2017-Sep-16 22:57N 48°14' W 123°45'613.8
2017-Sep-16 22:30N 48°14' W 123°54'816.6
2017-Sep-16 22:01N 48°17' W 124°06'816.7
2017-Sep-16 21:30N 48°21' W 124°17'815.3
2017-Sep-16 21:00N 48°24' W 124°28'815.3
2017-Sep-16 20:31N 48°27' W 124°38'815.7
2017-Sep-16 20:01N 48°29' W 124°49'815.9
2017-Sep-16 19:30N 48°29' W 125°01'816.2
2017-Sep-16 19:00N 48°30' W 125°13'815.4
2017-Sep-16 18:30N 48°34' W 125°23'715.0
2017-Sep-16 18:00N 48°38' W 125°33'816.9
2017-Sep-16 17:30N 48°42' W 125°44'816.3
2017-Sep-16 17:00N 48°46' W 125°55'816.2
2017-Sep-16 16:30N 48°51' W 126°05'816.7
2017-Sep-16 16:00N 48°55' W 126°16'816.7
2017-Sep-16 15:30N 48°59' W 126°27'916.9
2017-Sep-16 15:00N 49°04' W 126°38'816.7
2017-Sep-16 14:30N 49°08' W 126°49'816.3
2017-Sep-16 14:00N 49°13' W 126°58'816.6
2017-Sep-16 13:30N 49°19' W 127°08'917.0
2017-Sep-16 13:00N 49°24' W 127°18'5419.9
2017-Sep-16 10:16N 50°01' W 128°20'519.5
2017-Sep-16 10:00N 50°04' W 128°26'1019.4
2017-Sep-16 09:30N 50°11' W 128°37'1019.6
2017-Sep-16 09:00N 50°17' W 128°49'1119.4
2017-Sep-16 08:28N 50°24' W 129°01'1019.6
2017-Sep-16 07:58N 50°31' W 129°13'1019.1
2017-Sep-16 07:28N 50°37' W 129°24'919.1
2017-Sep-16 07:00N 50°43' W 129°34'919.2
2017-Sep-16 06:30N 50°50' W 129°45'1119.0
2017-Sep-16 05:55N 50°57' W 129°57'819.0
2017-Sep-16 05:30N 51°03' W 130°07'1019.6
2017-Sep-16 05:00N 51°10' W 130°18'1019.1
2017-Sep-16 04:28N 51°17' W 130°30'1918.6
2017-Sep-16 03:29N 51°29' W 130°51'  
2017-Sep-11 20:46N 51°32' W 129°55'17117.7
2017-Sep-11 11:07N 49°18' W 127°08'219.6
2017-Sep-11 10:59N 49°17' W 127°05'919.0
2017-Sep-11 10:30N 49°11' W 126°54'918.3
2017-Sep-11 10:00N 49°05' W 126°43'1019.4
2017-Sep-11 09:30N 49°00' W 126°30'1733.6
2017-Sep-11 09:00N 48°48' W 126°12'659.9 110 / 151022.910.8 15.013.216.0
2017-Sep-11 08:54N 48°54' W 126°13'821.3
2017-Sep-11 08:31N 48°49' W 126°03'1121.3
2017-Sep-11 08:01N 48°44' W 125°49'1121.1
2017-Sep-11 07:31N 48°38' W 125°35'1121.3
2017-Sep-11 07:00N 48°33' W 125°21'1020.4
2017-Sep-11 06:30N 48°31' W 125°06'1121.9
2017-Sep-11 06:00N 48°31' W 124°50'1122.3
2017-Sep-11 05:31N 48°28' W 124°34'1121.2
2017-Sep-11 05:01N 48°24' W 124°19'1020.9
2017-Sep-11 04:31N 48°20' W 124°04'1020.9
2017-Sep-11 04:01N 48°17' W 123°49'1019.9
2017-Sep-11 03:31N 48°15' W 123°35'816.9
2017-Sep-11 03:00N 48°11' W 123°24'612.9
2017-Sep-11 02:30N 48°10' W 123°14'1019.1
2017-Sep-11 02:01N 48°12' W 123°00'1218.1
2017-Sep-11 01:20N 48°09' W 122°43'717.4
2017-Sep-11 00:56N 48°03' W 122°38'818.1
2017-Sep-11 00:31N 47°56' W 122°31'1019.3
2017-Sep-11 00:01N 47°47' W 122°26'917.4
2017-Sep-10 23:31N 47°39' W 122°27'3 5.7
2017-Sep-10 23:00N 47°38' W 122°23'0 0.0
2017-Sep-10 22:29N 47°38' W 122°23'0 0.0
2017-Sep-10 22:00N 47°38' W 122°23'0 0.0
2017-Sep-10 21:29N 47°38' W 122°23'0 0.0
2017-Sep-10 20:59N 47°38' W 122°23'0 0.0
2017-Sep-10 20:29N 47°38' W 122°23'0 0.0
2017-Sep-10 19:58N 47°38' W 122°23'0 0.0
2017-Sep-10 19:28N 47°38' W 122°23'0 0.0
2017-Sep-10 19:00N 47°38' W 122°23'0 0.0
2017-Sep-10 18:30N 47°38' W 122°23'0 0.0
2017-Sep-10 18:00N 47°38' W 122°23'0 0.0
2017-Sep-10 17:30N 47°38' W 122°23'0 0.0
2017-Sep-10 17:00N 47°38' W 122°23'0 0.0
2017-Sep-10 16:30N 47°38' W 122°23'0 0.0
2017-Sep-10 16:00N 47°38' W 122°23'0 0.0
2017-Sep-10 15:29N 47°38' W 122°23'0 0.0
2017-Sep-10 14:59N 47°38' W 122°23'0 0.0
2017-Sep-10 13:58N 47°38' W 122°23'0 0.0
2017-Sep-10 13:29N 47°38' W 122°23'0 0.0
2017-Sep-10 12:58N 47°38' W 122°23'1 1.1
2017-Sep-10 12:30N 47°37' W 122°23'4 8.5
2017-Sep-10 12:00N 47°39' W 122°28'612.8
2017-Sep-10 11:30N 47°46' W 122°27'612.8
2017-Sep-10 11:00N 47°52' W 122°29'917.2
2017-Sep-10 10:30N 47°59' W 122°36'918.8
2017-Sep-10 10:00N 48°08' W 122°42'1018.0
2017-Sep-10 09:29N 48°12' W 122°55'918.7
2017-Sep-10 09:00N 48°12' W 123°08'917.5
2017-Sep-10 08:30N 48°11' W 123°21'712.9
2017-Sep-10 08:00N 48°14' W 123°31'918.2
2017-Sep-10 07:31N 48°22' W 123°26'3 6.9
2017-Sep-10 07:00N 48°25' W 123°24'0 0.0
2017-Sep-10 06:28N 48°25' W 123°24'0 0.0
2017-Sep-10 05:58N 48°25' W 123°24'0 0.0
2017-Sep-10 05:31N 48°25' W 123°24'0 0.0
2017-Sep-10 05:00N 48°25' W 123°24'0 0.0
2017-Sep-10 04:30N 48°25' W 123°24'0 0.0
2017-Sep-10 04:00N 48°25' W 123°24'0 0.0
2017-Sep-10 03:30N 48°25' W 123°24'0 0.0
2017-Sep-10 02:59N 48°25' W 123°24'0 0.0
2017-Sep-10 02:29N 48°25' W 123°24'0 0.0
2017-Sep-10 01:59N 48°25' W 123°24'0 0.7
2017-Sep-10 01:30N 48°25' W 123°24'3 6.8
2017-Sep-10 01:00N 48°21' W 123°24'4 9.0
2017-Sep-10 00:30N 48°17' W 123°25'611.2
2017-Sep-10 00:00N 48°13' W 123°32'715.0
2017-Sep-09 23:30N 48°13' W 123°43'815.6
2017-Sep-09 23:00N 48°13' W 123°54'917.5
2017-Sep-09 22:30N 48°17' W 124°06'917.4
2017-Sep-09 22:00N 48°21' W 124°18'917.4
2017-Sep-09 21:30N 48°24' W 124°30'918.1
2017-Sep-09 21:00N 48°28' W 124°42'918.4
2017-Sep-09 20:30N 48°29' W 124°57'917.9
2017-Sep-09 20:00N 48°29' W 125°10'816.4
2017-Sep-09 19:30N 48°33' W 125°21'815.9
2017-Sep-09 19:00N 48°37' W 125°31'816.7
2017-Sep-09 18:30N 48°41' W 125°42'917.9
2017-Sep-09 18:00N 48°46' W 125°53'8529.4
2017-Sep-09 18:00N 48°42' W 125°42'1735.9 220 / 191013.410.8 16.014.613.0
2017-Sep-09 17:30N 48°51' W 126°05'917.4
2017-Sep-09 17:00N 48°55' W 126°16'917.0
2017-Sep-09 16:30N 48°60' W 126°27'917.4
2017-Sep-09 16:00N 49°04' W 126°39'917.7
2017-Sep-09 15:30N 49°10' W 126°49'917.5
2017-Sep-09 15:00N 49°15' W 126°60'  
Track history (hours):
 
Tides and Currents Weather Stations Pressure Air Temp Water Temp Dewpoint Dewpoint Depression Visibility Wind Speed Wind Dir Waves Ship Positions

Emerald Princess

Last reported at 2017-Sep-19 08:45 UTC. Time now 2017-Sep-22 06:20 UTC.
Position N 54°40' W 131°31'.

Type: Ship. MMSI: 310531000.

Date/timePositionNaut miles runAvg speedWind from/ knotsBaromVisibWave heightAir tempDewpointWater temp
2017-Sep-19 08:45N 54°40' W 131°31'311.9
2017-Sep-19 08:29N 54°37' W 131°28'714.7
2017-Sep-19 08:00N 54°32' W 131°21'714.6
2017-Sep-19 07:30N 54°26' W 131°13'714.4
2017-Sep-19 07:00N 54°20' W 131°06'714.1
2017-Sep-19 06:30N 54°13' W 131°04'713.5
2017-Sep-19 06:00N 54°06' W 131°03'714.1
2017-Sep-19 05:30N 53°59' W 131°05'714.5
2017-Sep-19 05:00N 53°52' W 131°07'714.3
2017-Sep-19 04:30N 53°45' W 131°05'714.3
2017-Sep-19 04:00N 53°38' W 131°03'714.5
2017-Sep-19 03:30N 53°31' W 131°02'914.7
2017-Sep-19 02:51N 53°21' W 130°58'615.4
2017-Sep-19 02:29N 53°16' W 130°55'7516.6
2017-Sep-18 22:00N 52°06' W 130°12'20217.2 090 / 141004.910.8 12.5 7.414.0
2017-Sep-18 10:15N 49°20' W 127°10'521.6
2017-Sep-18 10:00N 49°16' W 127°04'1121.5
2017-Sep-18 09:30N 49°09' W 126°52'1121.7
2017-Sep-18 09:00N 49°03' W 126°38'1121.2
2017-Sep-18 08:30N 48°58' W 126°23'1121.6
2017-Sep-18 08:00N 48°52' W 126°10'1122.6
2017-Sep-18 07:30N 48°46' W 125°55'1122.9
2017-Sep-18 07:00N 48°40' W 125°40'1122.6
2017-Sep-18 06:30N 48°35' W 125°25'1122.0
2017-Sep-18 06:00N 48°32' W 125°09'1122.0
2017-Sep-18 05:30N 48°32' W 124°53'1122.2
2017-Sep-18 05:00N 48°29' W 124°37'1122.7
2017-Sep-18 04:30N 48°24' W 124°21'1121.8
2017-Sep-18 04:00N 48°20' W 124°06'1122.1
2017-Sep-18 03:30N 48°17' W 123°50'1223.0
2017-Sep-18 03:00N 48°15' W 123°33'918.1
2017-Sep-18 02:30N 48°09' W 123°22'1019.1
2017-Sep-18 02:00N 48°12' W 123°09'1122.3
2017-Sep-18 01:30N 48°12' W 122°52'1121.7
2017-Sep-18 01:00N 48°05' W 122°39'1021.5
2017-Sep-18 00:30N 47°56' W 122°30'1122.0
2017-Sep-18 00:00N 47°46' W 122°26'917.0
2017-Sep-17 23:30N 47°37' W 122°24'1 2.1
2017-Sep-17 22:59N 47°38' W 122°23'0 0.0
2017-Sep-17 22:29N 47°38' W 122°23'0 0.0
2017-Sep-17 21:58N 47°38' W 122°23'0 0.0
2017-Sep-17 21:29N 47°38' W 122°23'0 0.0
2017-Sep-17 21:00N 47°38' W 122°23'0 0.0
2017-Sep-17 20:30N 47°38' W 122°23'0 0.0
2017-Sep-17 20:00N 47°38' W 122°23'0 0.0
2017-Sep-17 19:28N 47°38' W 122°23'0 0.0
2017-Sep-17 19:00N 47°38' W 122°23'0 0.0
2017-Sep-17 18:30N 47°38' W 122°23'0 0.0
2017-Sep-17 18:00N 47°38' W 122°23'0 0.0
2017-Sep-17 17:29N 47°38' W 122°23'0 0.0
2017-Sep-17 16:59N 47°38' W 122°23'0 0.0
2017-Sep-17 16:29N 47°38' W 122°23'0 0.0
2017-Sep-17 15:59N 47°38' W 122°23'0 0.0
2017-Sep-17 15:28N 47°38' W 122°23'0 0.0
2017-Sep-17 14:59N 47°38' W 122°23'0 0.0
2017-Sep-17 14:28N 47°38' W 122°23'0 0.0
2017-Sep-17 14:00N 47°38' W 122°23'0 0.0
2017-Sep-17 13:30N 47°38' W 122°23'0 0.0
2017-Sep-17 13:00N 47°38' W 122°23'1 1.6
2017-Sep-17 12:30N 47°37' W 122°23'5 9.2
2017-Sep-17 12:00N 47°40' W 122°28'714.5
2017-Sep-17 11:30N 47°47' W 122°27'815.7
2017-Sep-17 11:00N 47°55' W 122°30'816.2
2017-Sep-17 10:30N 48°01' W 122°38'815.2
2017-Sep-17 10:00N 48°08' W 122°42'816.8
2017-Sep-17 09:30N 48°12' W 122°54'919.1
2017-Sep-17 09:00N 48°12' W 123°08'1019.5
2017-Sep-17 08:30N 48°11' W 123°22'612.2
2017-Sep-17 08:00N 48°14' W 123°30'917.1
2017-Sep-17 07:31N 48°22' W 123°25'3 6.5
2017-Sep-17 07:00N 48°25' W 123°24'0 0.0
2017-Sep-17 06:28N 48°25' W 123°24'0 0.0
2017-Sep-17 05:58N 48°25' W 123°24'0 0.0
2017-Sep-17 05:31N 48°25' W 123°24'0 0.0
2017-Sep-17 05:00N 48°25' W 123°24'0 0.0
2017-Sep-17 04:30N 48°25' W 123°24'0 0.0
2017-Sep-17 04:00N 48°25' W 123°24'0 0.0
2017-Sep-17 03:30N 48°25' W 123°24'0 0.0
2017-Sep-17 02:59N 48°25' W 123°24'0 0.0
2017-Sep-17 02:29N 48°25' W 123°24'0 0.0
2017-Sep-17 01:59N 48°25' W 123°24'0 0.0
2017-Sep-17 01:29N 48°25' W 123°24'0 0.9
2017-Sep-17 01:01N 48°25' W 123°24'4 7.1
2017-Sep-17 00:31N 48°21' W 123°25'611.2
2017-Sep-17 00:01N 48°16' W 123°26'612.0
2017-Sep-16 23:30N 48°13' W 123°34'713.4
2017-Sep-16 22:57N 48°14' W 123°45'613.8
2017-Sep-16 22:30N 48°14' W 123°54'816.6
2017-Sep-16 22:01N 48°17' W 124°06'816.7
2017-Sep-16 21:30N 48°21' W 124°17'815.3
2017-Sep-16 21:00N 48°24' W 124°28'815.3
2017-Sep-16 20:31N 48°27' W 124°38'815.7
2017-Sep-16 20:01N 48°29' W 124°49'815.9
2017-Sep-16 19:30N 48°29' W 125°01'816.2
2017-Sep-16 19:00N 48°30' W 125°13'815.4
2017-Sep-16 18:30N 48°34' W 125°23'715.0
2017-Sep-16 18:00N 48°38' W 125°33'816.9
2017-Sep-16 17:30N 48°42' W 125°44'816.3
2017-Sep-16 17:00N 48°46' W 125°55'816.2
2017-Sep-16 16:30N 48°51' W 126°05'816.7
2017-Sep-16 16:00N 48°55' W 126°16'816.7
2017-Sep-16 15:30N 48°59' W 126°27'916.9
2017-Sep-16 15:00N 49°04' W 126°38'816.7
2017-Sep-16 14:30N 49°08' W 126°49'816.3
2017-Sep-16 14:00N 49°13' W 126°58'816.6
2017-Sep-16 13:30N 49°19' W 127°08'917.0
2017-Sep-16 13:00N 49°24' W 127°18'5419.9
2017-Sep-16 10:16N 50°01' W 128°20'519.5
2017-Sep-16 10:00N 50°04' W 128°26'1019.4
2017-Sep-16 09:30N 50°11' W 128°37'1019.6
2017-Sep-16 09:00N 50°17' W 128°49'1119.4
2017-Sep-16 08:28N 50°24' W 129°01'1019.6
2017-Sep-16 07:58N 50°31' W 129°13'1019.1
2017-Sep-16 07:28N 50°37' W 129°24'919.1
2017-Sep-16 07:00N 50°43' W 129°34'919.2
2017-Sep-16 06:30N 50°50' W 129°45'1119.0
2017-Sep-16 05:55N 50°57' W 129°57'819.0
2017-Sep-16 05:30N 51°03' W 130°07'1019.6
2017-Sep-16 05:00N 51°10' W 130°18'1019.1
2017-Sep-16 04:28N 51°17' W 130°30'1918.6
2017-Sep-16 03:29N 51°29' W 130°51'  
2017-Sep-11 20:46N 51°32' W 129°55'17117.7
2017-Sep-11 11:07N 49°18' W 127°08'219.6
2017-Sep-11 10:59N 49°17' W 127°05'919.0
2017-Sep-11 10:30N 49°11' W 126°54'918.3
2017-Sep-11 10:00N 49°05' W 126°43'1019.4
2017-Sep-11 09:30N 49°00' W 126°30'1733.6
2017-Sep-11 09:00N 48°48' W 126°12'659.9 110 / 151022.910.8 15.013.216.0
2017-Sep-11 08:54N 48°54' W 126°13'821.3
2017-Sep-11 08:31N 48°49' W 126°03'1121.3
2017-Sep-11 08:01N 48°44' W 125°49'1121.1
2017-Sep-11 07:31N 48°38' W 125°35'1121.3
2017-Sep-11 07:00N 48°33' W 125°21'1020.4
2017-Sep-11 06:30N 48°31' W 125°06'1121.9
2017-Sep-11 06:00N 48°31' W 124°50'1122.3
2017-Sep-11 05:31N 48°28' W 124°34'1121.2
2017-Sep-11 05:01N 48°24' W 124°19'1020.9
2017-Sep-11 04:31N 48°20' W 124°04'1020.9
2017-Sep-11 04:01N 48°17' W 123°49'1019.9
2017-Sep-11 03:31N 48°15' W 123°35'816.9
2017-Sep-11 03:00N 48°11' W 123°24'612.9
2017-Sep-11 02:30N 48°10' W 123°14'1019.1
2017-Sep-11 02:01N 48°12' W 123°00'1218.1
2017-Sep-11 01:20N 48°09' W 122°43'717.4
2017-Sep-11 00:56N 48°03' W 122°38'818.1
2017-Sep-11 00:31N 47°56' W 122°31'1019.3
2017-Sep-11 00:01N 47°47' W 122°26'917.4
2017-Sep-10 23:31N 47°39' W 122°27'3 5.7
2017-Sep-10 23:00N 47°38' W 122°23'0 0.0
2017-Sep-10 22:29N 47°38' W 122°23'0 0.0
2017-Sep-10 22:00N 47°38' W 122°23'0 0.0
2017-Sep-10 21:29N 47°38' W 122°23'0 0.0
2017-Sep-10 20:59N 47°38' W 122°23'0 0.0
2017-Sep-10 20:29N 47°38' W 122°23'0 0.0
2017-Sep-10 19:58N 47°38' W 122°23'0 0.0
2017-Sep-10 19:28N 47°38' W 122°23'0 0.0
2017-Sep-10 19:00N 47°38' W 122°23'0 0.0
2017-Sep-10 18:30N 47°38' W 122°23'0 0.0
2017-Sep-10 18:00N 47°38' W 122°23'0 0.0
2017-Sep-10 17:30N 47°38' W 122°23'0 0.0
2017-Sep-10 17:00N 47°38' W 122°23'0 0.0
2017-Sep-10 16:30N 47°38' W 122°23'0 0.0
2017-Sep-10 16:00N 47°38' W 122°23'0 0.0
2017-Sep-10 15:29N 47°38' W 122°23'0 0.0
2017-Sep-10 14:59N 47°38' W 122°23'0 0.0
2017-Sep-10 13:58N 47°38' W 122°23'0 0.0
2017-Sep-10 13:29N 47°38' W 122°23'0 0.0
2017-Sep-10 12:58N 47°38' W 122°23'1 1.1
2017-Sep-10 12:30N 47°37' W 122°23'4 8.5
2017-Sep-10 12:00N 47°39' W 122°28'612.8
2017-Sep-10 11:30N 47°46' W 122°27'612.8
2017-Sep-10 11:00N 47°52' W 122°29'917.2
2017-Sep-10 10:30N 47°59' W 122°36'918.8
2017-Sep-10 10:00N 48°08' W 122°42'1018.0
2017-Sep-10 09:29N 48°12' W 122°55'918.7
2017-Sep-10 09:00N 48°12' W 123°08'917.5
2017-Sep-10 08:30N 48°11' W 123°21'712.9
2017-Sep-10 08:00N 48°14' W 123°31'918.2
2017-Sep-10 07:31N 48°22' W 123°26'3 6.9
2017-Sep-10 07:00N 48°25' W 123°24'0 0.0
2017-Sep-10 06:28N 48°25' W 123°24'0 0.0
2017-Sep-10 05:58N 48°25' W 123°24'0 0.0
2017-Sep-10 05:31N 48°25' W 123°24'0 0.0
2017-Sep-10 05:00N 48°25' W 123°24'0 0.0
2017-Sep-10 04:30N 48°25' W 123°24'0 0.0
2017-Sep-10 04:00N 48°25' W 123°24'0 0.0
2017-Sep-10 03:30N 48°25' W 123°24'0 0.0
2017-Sep-10 02:59N 48°25' W 123°24'0 0.0
2017-Sep-10 02:29N 48°25' W 123°24'0 0.0
2017-Sep-10 01:59N 48°25' W 123°24'0 0.7
2017-Sep-10 01:30N 48°25' W 123°24'3 6.8
2017-Sep-10 01:00N 48°21' W 123°24'4 9.0
2017-Sep-10 00:30N 48°17' W 123°25'611.2
2017-Sep-10 00:00N 48°13' W 123°32'715.0
2017-Sep-09 23:30N 48°13' W 123°43'815.6
2017-Sep-09 23:00N 48°13' W 123°54'917.5
2017-Sep-09 22:30N 48°17' W 124°06'917.4
2017-Sep-09 22:00N 48°21' W 124°18'917.4
2017-Sep-09 21:30N 48°24' W 124°30'918.1
2017-Sep-09 21:00N 48°28' W 124°42'918.4
2017-Sep-09 20:30N 48°29' W 124°57'917.9
2017-Sep-09 20:00N 48°29' W 125°10'816.4
2017-Sep-09 19:30N 48°33' W 125°21'815.9
2017-Sep-09 19:00N 48°37' W 125°31'816.7
2017-Sep-09 18:30N 48°41' W 125°42'917.9
2017-Sep-09 18:00N 48°46' W 125°53'8529.4
2017-Sep-09 18:00N 48°42' W 125°42'1735.9 220 / 191013.410.8 16.014.613.0
2017-Sep-09 17:30N 48°51' W 126°05'917.4
2017-Sep-09 17:00N 48°55' W 126°16'917.0
2017-Sep-09 16:30N 48°60' W 126°27'917.4
2017-Sep-09 16:00N 49°04' W 126°39'917.7
2017-Sep-09 15:30N 49°10' W 126°49'917.5
2017-Sep-09 15:00N 49°15' W 126°60'  

Dump ship's entire track history